createdAt,value
2023-05-17T00:00:37.244Z,4.32
2023-05-17T00:03:04.452Z,4.93
2023-05-17T00:05:31.607Z,6.68
2023-05-17T00:07:58.626Z,8.60
2023-05-17T00:10:25.697Z,3.53
2023-05-17T00:12:52.807Z,7.53
2023-05-17T00:15:19.884Z,3.30
2023-05-17T00:17:46.985Z,7.30
2023-05-17T00:20:14.148Z,7.20
2023-05-17T00:22:41.217Z,6.35
2023-05-17T00:25:08.523Z,7.15
2023-05-17T00:27:35.671Z,4.38
2023-05-17T00:30:02.901Z,6.07
2023-05-17T00:32:30.093Z,4.40
2023-05-17T00:34:57.250Z,6.15
2023-05-17T00:37:24.426Z,4.90
2023-05-17T00:39:53.153Z,6.10
2023-05-17T00:42:20.318Z,11.10
2023-05-17T00:44:47.381Z,5.13
2023-05-17T00:47:14.574Z,5.30
2023-05-17T00:49:41.740Z,6.28
2023-05-17T00:52:09.157Z,6.43
2023-05-17T00:54:36.402Z,5.97
2023-05-17T00:57:04.722Z,6.93
2023-05-17T00:59:32.328Z,4.93
2023-05-17T01:02:00.719Z,6.30
2023-05-17T01:04:28.412Z,4.72
2023-05-17T01:06:56.235Z,7.25
2023-05-17T01:09:23.416Z,9.35
2023-05-17T01:11:56.589Z,7.07
2023-05-17T01:14:45.213Z,4.88
2023-05-17T01:17:29.514Z,4.30
2023-05-17T01:20:19.293Z,5.88
2023-05-17T01:22:49.413Z,7.40
2023-05-17T01:25:31.613Z,8.25
2023-05-17T01:28:01.298Z,6.72
2023-05-17T01:30:29.944Z,11.65
2023-05-17T01:33:01.623Z,6.05
2023-05-17T01:35:29.133Z,4.22
2023-05-17T01:37:56.512Z,4.45
2023-05-17T01:40:24.436Z,8.75
2023-05-17T01:43:25.182Z,6.07
2023-05-17T01:46:03.821Z,6.40
2023-05-17T01:48:41.361Z,9.88
2023-05-17T01:51:12.132Z,12.63
2023-05-17T01:53:43.043Z,8.70
2023-05-17T01:56:20.759Z,9.82
2023-05-17T01:58:48.994Z,8.57
2023-05-17T02:01:18.165Z,9.63
2023-05-17T02:03:49.639Z,10.93
2023-05-17T02:06:17.580Z,12.73
2023-05-17T02:08:44.699Z,10.25
2023-05-17T02:11:11.816Z,10.57
2023-05-17T02:13:38.972Z,11.15
2023-05-17T02:16:06.693Z,10.90
2023-05-17T02:18:35.946Z,9.88
2023-05-17T02:21:04.053Z,13.35
2023-05-17T02:23:31.170Z,17.67
2023-05-17T02:25:58.278Z,14.07
2023-05-17T02:28:25.398Z,11.65
2023-05-17T02:30:53.268Z,14.90
2023-05-17T02:33:20.502Z,16.58
2023-05-17T02:35:49.905Z,13.13
2023-05-17T02:38:17.034Z,13.05
2023-05-17T02:40:44.208Z,13.00
2023-05-17T02:43:11.237Z,12.93
2023-05-17T02:45:38.398Z,10.48
2023-05-17T02:48:06.054Z,20.02
2023-05-17T02:50:33.212Z,11.75
2023-05-17T02:53:00.248Z,12.07
2023-05-17T02:55:27.542Z,17.38
2023-05-17T02:57:54.974Z,14.73
2023-05-17T03:00:22.189Z,13.23
2023-05-17T03:02:49.360Z,17.73
2023-05-17T03:05:16.517Z,14.00
2023-05-17T03:07:43.633Z,15.27
2023-05-17T03:10:11.150Z,18.77
2023-05-17T03:12:38.239Z,14.40
2023-05-17T03:15:05.847Z,16.08
2023-05-17T03:17:32.983Z,14.10
2023-05-17T03:20:00.243Z,13.77
2023-05-17T03:22:27.300Z,18.48
2023-05-17T03:24:54.491Z,18.70
2023-05-17T03:27:21.632Z,15.52
2023-05-17T03:29:48.728Z,15.15
2023-05-17T03:32:15.876Z,16.73
2023-05-17T03:34:42.960Z,13.80
2023-05-17T03:37:10.097Z,15.50
2023-05-17T03:39:37.207Z,15.23
2023-05-17T03:42:04.425Z,18.70
2023-05-17T03:44:31.534Z,16.83
2023-05-17T03:46:58.596Z,22.15
2023-05-17T03:49:25.759Z,14.20
2023-05-17T03:51:52.848Z,18.13
2023-05-17T03:54:20.189Z,19.08
2023-05-17T03:56:49.236Z,18.35
2023-05-17T03:59:17.207Z,19.75
2023-05-17T04:01:45.652Z,13.35
2023-05-17T04:04:12.838Z,24.02
2023-05-17T04:06:41.350Z,15.50
2023-05-17T04:09:11.213Z,19.85
2023-05-17T04:11:38.513Z,21.60
2023-05-17T04:14:05.702Z,24.00
2023-05-17T04:16:32.927Z,17.25
2023-05-17T04:19:06.333Z,24.27
2023-05-17T04:21:33.556Z,21.83
2023-05-17T04:24:00.971Z,22.27
2023-05-17T04:26:29.377Z,25.88
2023-05-17T04:28:56.453Z,18.88
2023-05-17T04:31:23.903Z,22.15
2023-05-17T04:33:51.168Z,20.67
2023-05-17T04:36:18.772Z,17.55
2023-05-17T04:38:46.618Z,18.17
2023-05-17T04:41:13.845Z,19.95
2023-05-17T04:43:42.245Z,16.60
2023-05-17T04:46:09.390Z,23.20
2023-05-17T04:48:36.685Z,21.48
2023-05-17T04:51:04.921Z,21.85
2023-05-17T04:53:32.405Z,21.00
2023-05-17T04:55:59.885Z,30.00
2023-05-17T04:58:27.034Z,26.85
2023-05-17T05:00:54.161Z,24.05
2023-05-17T05:03:23.163Z,25.48
2023-05-17T05:05:51.060Z,20.83
2023-05-17T05:08:18.336Z,30.13
2023-05-17T05:10:46.393Z,36.75
2023-05-17T05:13:13.516Z,28.33
2023-05-17T05:15:40.624Z,41.90
2023-05-17T05:18:07.919Z,31.98
2023-05-17T05:20:35.132Z,28.73
2023-05-17T05:23:03.982Z,30.95
2023-05-17T05:25:31.308Z,27.60
2023-05-17T05:27:58.619Z,26.50
2023-05-17T05:30:25.776Z,28.02
2023-05-17T05:32:53.488Z,26.02
2023-05-17T05:35:21.035Z,26.25
2023-05-17T05:37:48.086Z,24.77
2023-05-17T05:40:15.284Z,27.85
2023-05-17T05:42:42.421Z,29.17
2023-05-17T05:45:11.441Z,28.38
2023-05-17T05:47:38.681Z,32.13
2023-05-17T05:50:07.181Z,32.47
2023-05-17T05:52:34.283Z,40.08
2023-05-17T05:55:01.411Z,47.83
2023-05-17T05:57:28.551Z,36.42
2023-05-17T05:59:55.642Z,46.42
2023-05-17T06:02:22.890Z,37.75
2023-05-17T06:04:50.134Z,47.72
2023-05-17T06:07:17.320Z,47.10
2023-05-17T06:09:44.473Z,46.58
2023-05-17T06:12:11.603Z,38.88
2023-05-17T06:14:38.880Z,35.40
2023-05-17T06:17:06.022Z,40.95
2023-05-17T06:19:33.262Z,44.15
2023-05-17T06:22:00.573Z,40.92
2023-05-17T06:24:27.656Z,48.40
2023-05-17T06:26:54.778Z,43.45
2023-05-17T06:29:22.293Z,35.50
2023-05-17T06:31:49.492Z,36.97
2023-05-17T06:34:16.615Z,34.38
2023-05-17T06:36:43.723Z,38.55
2023-05-17T06:39:11.261Z,41.80
2023-05-17T06:41:38.516Z,35.25
2023-05-17T06:44:05.973Z,36.08
2023-05-17T06:46:33.063Z,30.98
2023-05-17T06:49:00.333Z,33.88
2023-05-17T06:51:27.609Z,27.13
2023-05-17T06:53:54.758Z,23.00
2023-05-17T06:56:22.378Z,30.35
2023-05-17T06:58:49.460Z,30.85
2023-05-17T07:01:17.193Z,29.75
2023-05-17T07:03:44.641Z,26.20
2023-05-17T07:06:11.913Z,25.92
2023-05-17T07:08:40.579Z,29.25
2023-05-17T07:11:07.706Z,23.35
2023-05-17T07:13:34.798Z,23.17
2023-05-17T07:16:01.894Z,25.60
2023-05-17T07:18:29.150Z,24.98
2023-05-17T07:20:56.398Z,19.58
2023-05-17T07:23:23.486Z,19.08
2023-05-17T07:25:51.122Z,20.15
2023-05-17T07:28:18.218Z,18.65
2023-05-17T07:30:45.561Z,18.88
2023-05-17T07:33:12.726Z,17.63
2023-05-17T07:35:39.865Z,24.70
2023-05-17T07:38:07.094Z,17.55
2023-05-17T07:40:34.209Z,16.20
2023-05-17T07:43:01.515Z,13.30
2023-05-17T07:45:29.279Z,9.93
2023-05-17T07:47:56.754Z,8.50
2023-05-17T07:50:24.236Z,9.30
2023-05-17T07:52:52.035Z,9.40
2023-05-17T07:55:19.996Z,7.15
2023-05-17T07:57:48.331Z,8.43
2023-05-17T08:00:18.840Z,8.27
2023-05-17T08:02:46.918Z,9.70
2023-05-17T08:05:14.014Z,7.93
2023-05-17T08:07:41.159Z,8.95
2023-05-17T08:10:08.660Z,13.80
2023-05-17T08:12:36.101Z,6.07
2023-05-17T08:15:03.524Z,5.88
2023-05-17T08:17:30.789Z,8.30
2023-05-17T08:19:57.975Z,5.70
2023-05-17T08:22:28.236Z,5.65
2023-05-17T08:24:55.311Z,9.00
2023-05-17T08:27:22.389Z,8.55
2023-05-17T08:29:49.545Z,8.15
2023-05-17T08:32:16.649Z,8.52
2023-05-17T08:34:43.742Z,7.40
2023-05-17T08:37:10.795Z,6.78
2023-05-17T08:39:37.963Z,5.13
2023-05-17T08:42:08.600Z,4.50
2023-05-17T08:44:37.257Z,7.10
2023-05-17T08:47:04.922Z,9.45
2023-05-17T08:49:34.391Z,5.15
2023-05-17T08:52:03.580Z,8.48
2023-05-17T08:54:30.720Z,6.75
2023-05-17T08:57:02.243Z,8.75
2023-05-17T08:59:34.044Z,5.68
2023-05-17T09:02:01.994Z,7.68
2023-05-17T09:04:31.221Z,10.75
2023-05-17T09:06:59.243Z,9.85
2023-05-17T09:09:26.892Z,13.20
2023-05-17T09:11:53.996Z,11.68
2023-05-17T09:14:21.253Z,8.95
2023-05-17T09:16:56.019Z,8.55
2023-05-17T09:19:23.325Z,7.80
2023-05-17T09:21:50.907Z,8.15
2023-05-17T09:24:27.133Z,7.30
2023-05-17T09:27:00.891Z,6.72
2023-05-17T09:29:32.645Z,8.93
2023-05-17T09:32:26.466Z,5.35
2023-05-17T09:34:54.052Z,11.48
2023-05-17T09:37:21.381Z,6.03
2023-05-17T09:39:48.821Z,7.28
2023-05-17T09:42:17.121Z,6.63
2023-05-17T09:44:57.836Z,9.73
2023-05-17T09:47:26.119Z,8.55
2023-05-17T09:49:53.520Z,9.25
2023-05-17T09:52:21.631Z,8.52
2023-05-17T09:54:55.877Z,10.25
2023-05-17T09:57:25.363Z,5.53
2023-05-17T09:59:57.653Z,9.77
2023-05-17T10:02:31.324Z,4.93
2023-05-17T10:04:59.725Z,10.68
2023-05-17T10:07:28.280Z,8.43
2023-05-17T10:09:56.338Z,7.10
2023-05-17T10:12:25.762Z,4.53
2023-05-17T10:14:56.135Z,11.70
2023-05-17T10:17:24.584Z,7.97
2023-05-17T10:19:52.749Z,8.27
2023-05-17T10:22:23.660Z,7.00
2023-05-17T10:24:51.969Z,9.23
2023-05-17T10:27:19.210Z,6.30
2023-05-17T10:29:49.881Z,7.07
2023-05-17T10:32:19.808Z,10.40
2023-05-17T10:34:57.996Z,8.40
2023-05-17T10:37:34.878Z,7.32
2023-05-17T10:40:03.760Z,9.30
2023-05-17T10:42:32.270Z,10.93
2023-05-17T10:45:01.775Z,8.90
2023-05-17T10:47:35.860Z,6.65
2023-05-17T10:52:39.451Z,7.30
2023-05-17T10:55:08.769Z,9.10
2023-05-17T10:57:50.799Z,10.13
2023-05-17T11:00:22.107Z,8.98
2023-05-17T11:02:51.005Z,6.00
2023-05-17T11:05:25.990Z,9.02
2023-05-17T11:08:12.008Z,7.13
2023-05-17T11:10:39.259Z,4.25
2023-05-17T11:13:23.018Z,5.80
2023-05-17T11:16:10.437Z,7.10
2023-05-17T11:18:54.619Z,8.40
2023-05-17T11:21:30.429Z,7.57
2023-05-17T11:24:03.967Z,5.65
2023-05-17T11:26:38.293Z,5.75
2023-05-17T11:29:10.720Z,8.10
2023-05-17T11:31:46.307Z,5.90
2023-05-17T11:34:13.522Z,9.88
2023-05-17T11:36:51.408Z,7.28
2023-05-17T11:39:21.690Z,6.20
2023-05-17T11:41:54.062Z,8.35
2023-05-17T11:44:29.083Z,6.25
2023-05-17T11:47:07.260Z,6.40
2023-05-17T11:49:38.602Z,7.72
2023-05-17T11:52:06.613Z,7.95
2023-05-17T11:54:35.021Z,7.85
2023-05-17T11:57:04.098Z,8.00
2023-05-17T11:59:40.375Z,7.03
2023-05-17T12:02:08.022Z,7.93
2023-05-17T12:04:39.487Z,8.57
2023-05-17T12:07:10.885Z,6.70
2023-05-17T12:09:39.403Z,10.98
2023-05-17T12:12:06.765Z,8.05
2023-05-17T12:14:34.084Z,8.55
2023-05-17T12:17:04.133Z,6.13
2023-05-17T12:19:32.927Z,9.63
2023-05-17T12:22:08.536Z,6.72
2023-05-17T12:24:43.377Z,5.85
2023-05-17T12:27:11.088Z,6.00
2023-05-17T12:29:39.415Z,5.43
2023-05-17T12:32:08.879Z,9.80
2023-05-17T12:34:37.822Z,6.30
2023-05-17T12:37:10.647Z,6.55
2023-05-17T12:39:38.422Z,7.15
2023-05-17T12:42:05.982Z,9.65
2023-05-17T12:44:33.566Z,5.25
2023-05-17T12:47:03.058Z,6.60
2023-05-17T12:49:30.257Z,4.38
2023-05-17T12:52:03.448Z,5.88
2023-05-17T12:54:30.832Z,5.87
2023-05-17T12:56:58.087Z,6.43
2023-05-17T12:59:26.050Z,7.38
2023-05-17T13:01:57.906Z,7.47
2023-05-17T13:04:33.519Z,6.53
2023-05-17T13:07:03.542Z,7.03
2023-05-17T13:09:32.663Z,6.38
2023-05-17T13:12:08.553Z,8.35
2023-05-17T13:14:45.639Z,4.13
2023-05-17T13:17:22.529Z,9.30
2023-05-17T13:19:50.166Z,7.57
2023-05-17T13:22:17.454Z,9.73
2023-05-17T13:24:45.422Z,8.82
2023-05-17T13:27:13.076Z,10.55
2023-05-17T13:29:42.084Z,7.07
2023-05-17T13:32:11.891Z,6.65
2023-05-17T13:34:39.892Z,8.93
2023-05-17T13:37:10.553Z,5.35
2023-05-17T13:39:39.500Z,7.10
2023-05-17T13:42:06.928Z,7.18
2023-05-17T13:44:34.174Z,9.70
2023-05-17T13:47:01.308Z,7.13
2023-05-17T13:49:28.831Z,4.57
2023-05-17T13:51:56.949Z,8.45
2023-05-17T13:54:24.258Z,8.35
2023-05-17T13:56:51.343Z,9.90
2023-05-17T13:59:18.709Z,9.75
2023-05-17T14:01:46.357Z,9.30
2023-05-17T14:04:13.570Z,4.97
2023-05-17T14:06:41.968Z,12.90
2023-05-17T14:09:09.084Z,8.00
2023-05-17T14:11:36.370Z,9.93
2023-05-17T14:14:04.723Z,6.10
2023-05-17T14:16:32.044Z,4.63
2023-05-17T14:19:01.926Z,7.43
2023-05-17T14:21:31.606Z,7.40
2023-05-17T14:23:58.768Z,7.32
2023-05-17T14:26:26.405Z,7.28
2023-05-17T14:28:53.806Z,11.23
2023-05-17T14:31:21.280Z,6.55
2023-05-17T14:33:48.540Z,7.85
2023-05-17T14:36:15.997Z,8.05
2023-05-17T14:38:43.072Z,7.72
2023-05-17T14:41:10.206Z,7.47
2023-05-17T14:43:37.302Z,5.43
2023-05-17T14:46:04.800Z,8.25
2023-05-17T14:48:31.978Z,5.43
2023-05-17T14:50:59.095Z,7.88
2023-05-17T14:53:29.579Z,9.70
2023-05-17T14:55:59.802Z,8.68
2023-05-17T14:58:26.945Z,8.07
2023-05-17T15:01:05.471Z,7.82
2023-05-17T15:03:35.318Z,6.22
2023-05-17T15:06:07.088Z,5.38
2023-05-17T15:08:36.082Z,6.43
2023-05-17T15:11:03.256Z,6.05
2023-05-17T15:13:30.582Z,8.80
2023-05-17T15:15:57.647Z,6.35
2023-05-17T15:18:24.836Z,9.38
2023-05-17T15:20:51.962Z,5.53
2023-05-17T15:23:19.006Z,4.95
2023-05-17T15:25:46.670Z,9.77
2023-05-17T15:28:14.247Z,6.75
2023-05-17T15:30:42.264Z,6.57
2023-05-17T15:33:09.698Z,12.20
2023-05-17T15:35:40.358Z,9.10
2023-05-17T15:38:07.505Z,8.63
2023-05-17T15:40:34.722Z,3.80
2023-05-17T15:43:01.844Z,4.35
2023-05-17T15:45:29.434Z,7.95
2023-05-17T15:47:57.372Z,8.35
2023-05-17T15:50:24.804Z,5.88
2023-05-17T15:52:51.984Z,7.03
2023-05-17T15:55:19.260Z,8.93
2023-05-17T15:57:46.870Z,8.18
2023-05-17T16:00:14.339Z,9.98
2023-05-17T16:02:41.875Z,6.47
2023-05-17T16:05:09.373Z,6.25
2023-05-17T16:07:36.641Z,6.25
2023-05-17T16:10:03.980Z,6.65
2023-05-17T16:12:31.216Z,8.00
2023-05-17T16:14:58.339Z,3.55
2023-05-17T16:17:25.426Z,5.85
2023-05-17T16:19:53.407Z,6.97
2023-05-17T16:22:20.700Z,9.13
2023-05-17T16:24:47.814Z,9.38
2023-05-17T16:27:15.031Z,6.53
2023-05-17T16:29:42.077Z,13.43
2023-05-17T16:32:09.281Z,9.23
2023-05-17T16:34:36.804Z,5.32
2023-05-17T16:37:07.373Z,11.98
2023-05-17T16:39:34.769Z,6.10
2023-05-17T16:42:02.108Z,12.40
2023-05-17T16:44:29.214Z,9.73
2023-05-17T16:46:56.352Z,5.40
2023-05-17T16:49:23.414Z,6.65
2023-05-17T16:51:52.404Z,7.65
2023-05-17T16:54:19.474Z,8.93
2023-05-17T16:56:46.663Z,6.75
2023-05-17T16:59:13.867Z,7.28
2023-05-17T17:01:41.055Z,5.35
2023-05-17T17:04:08.257Z,4.97
2023-05-17T17:06:35.692Z,10.18
2023-05-17T17:09:08.180Z,4.57
2023-05-17T17:11:35.543Z,8.30
2023-05-17T17:14:02.961Z,6.68
2023-05-17T17:16:31.427Z,6.03
2023-05-17T17:18:59.054Z,6.20
2023-05-17T17:21:26.631Z,9.57
2023-05-17T17:23:53.810Z,7.03
2023-05-17T17:26:21.189Z,8.45
2023-05-17T17:28:48.317Z,5.72
2023-05-17T17:31:16.562Z,6.60
2023-05-17T17:33:43.769Z,4.95
2023-05-17T17:36:11.511Z,3.95
2023-05-17T17:38:38.952Z,6.15
2023-05-17T17:41:06.512Z,7.00
2023-05-17T17:43:33.665Z,7.47
2023-05-17T17:46:01.097Z,7.40
2023-05-17T17:48:28.299Z,5.90
2023-05-17T17:50:55.948Z,5.97
2023-05-17T17:53:23.412Z,5.63
2023-05-17T17:55:50.820Z,4.60
2023-05-17T17:58:18.251Z,6.78
2023-05-17T18:00:45.273Z,4.68
2023-05-17T18:03:13.145Z,9.52
2023-05-17T18:05:41.767Z,6.28
2023-05-17T18:08:08.947Z,8.65
2023-05-17T18:10:36.142Z,10.77
2023-05-17T18:13:03.263Z,6.90
2023-05-17T18:15:30.367Z,9.50
2023-05-17T18:17:57.621Z,7.80
2023-05-17T18:20:26.580Z,29.70
2023-05-17T18:22:53.807Z,12.07
2023-05-17T18:25:21.802Z,8.68
2023-05-17T18:27:48.914Z,8.18
2023-05-17T18:30:17.159Z,13.90
2023-05-17T18:32:44.936Z,5.22
2023-05-17T18:35:12.265Z,11.27
2023-05-17T18:37:39.398Z,8.48
2023-05-17T18:40:07.447Z,6.70
2023-05-17T18:42:34.691Z,12.40
2023-05-17T18:45:01.891Z,5.68
2023-05-17T18:47:29.182Z,9.95
2023-05-17T18:49:56.429Z,10.32
2023-05-17T18:52:23.551Z,9.98
2023-05-17T18:54:50.906Z,10.07
2023-05-17T18:57:17.961Z,7.82
2023-05-17T18:59:45.145Z,7.22
2023-05-17T19:02:12.402Z,6.93
2023-05-17T19:04:39.817Z,7.38
2023-05-17T19:07:07.332Z,12.98
2023-05-17T19:09:34.685Z,10.70
2023-05-17T19:12:01.762Z,9.07
2023-05-17T19:14:28.893Z,7.35
2023-05-17T19:16:57.151Z,9.75
2023-05-17T19:19:25.462Z,8.13
2023-05-17T19:21:52.850Z,9.05
2023-05-17T19:24:19.999Z,9.52
2023-05-17T19:26:47.104Z,9.10
2023-05-17T19:29:15.613Z,13.13
2023-05-17T19:31:42.778Z,10.20
2023-05-17T19:34:09.932Z,14.95
2023-05-17T19:36:37.636Z,9.68
2023-05-17T19:39:04.831Z,5.57
2023-05-17T19:41:32.960Z,7.82
2023-05-17T19:44:00.093Z,8.00
2023-05-17T19:46:27.320Z,11.35
2023-05-17T19:48:55.748Z,9.68
2023-05-17T19:51:23.430Z,9.20
2023-05-17T19:53:53.364Z,13.95
2023-05-17T19:56:23.061Z,6.47
2023-05-17T19:58:51.248Z,13.15
2023-05-17T20:01:18.713Z,11.68
2023-05-17T20:03:46.186Z,9.13
2023-05-17T20:06:15.199Z,7.95
2023-05-17T20:08:43.745Z,6.32
2023-05-17T20:11:11.265Z,9.52
2023-05-17T20:13:41.347Z,7.43
2023-05-17T20:16:13.324Z,8.60
2023-05-17T20:18:43.973Z,10.18
2023-05-17T20:21:15.385Z,11.07
2023-05-17T20:23:42.694Z,10.52
2023-05-17T20:26:17.082Z,5.28
2023-05-17T20:28:44.807Z,5.57
2023-05-17T20:31:12.350Z,8.73
2023-05-17T20:33:39.954Z,13.82
2023-05-17T20:36:07.291Z,8.35
2023-05-17T20:38:34.463Z,5.47
2023-05-17T20:41:01.627Z,7.57
2023-05-17T20:43:29.133Z,10.40
2023-05-17T20:45:56.725Z,10.25
2023-05-17T20:48:23.902Z,7.57
2023-05-17T20:50:51.162Z,8.50
2023-05-17T20:53:18.317Z,9.27
2023-05-17T20:55:45.966Z,11.90
2023-05-17T20:58:12.987Z,10.65
2023-05-17T21:00:40.164Z,10.52
2023-05-17T21:03:09.405Z,8.82
2023-05-17T21:05:38.674Z,16.30
2023-05-17T21:08:07.500Z,7.38
2023-05-17T21:10:36.315Z,7.45
2023-05-17T21:13:03.427Z,6.80
2023-05-17T21:15:30.849Z,11.45
2023-05-17T21:17:58.135Z,9.02
2023-05-17T21:20:25.247Z,6.65
2023-05-17T21:22:52.342Z,5.95
2023-05-17T21:25:19.455Z,9.02
2023-05-17T21:27:47.604Z,7.35
2023-05-17T21:30:14.988Z,9.63
2023-05-17T21:32:42.193Z,8.77
2023-05-17T21:35:09.569Z,6.95
2023-05-17T21:37:40.181Z,5.50
2023-05-17T21:40:08.432Z,10.45
2023-05-17T21:42:35.889Z,8.80
2023-05-17T21:45:03.173Z,7.72
2023-05-17T21:47:30.303Z,8.65
2023-05-17T21:49:59.222Z,9.13
2023-05-17T21:52:26.418Z,12.77
2023-05-17T21:54:53.504Z,14.68
2023-05-17T21:57:22.093Z,8.90
2023-05-17T21:59:50.898Z,9.30
2023-05-17T22:02:18.634Z,10.82
2023-05-17T22:04:45.793Z,6.00
2023-05-17T22:07:14.212Z,16.17
2023-05-17T22:09:41.363Z,8.40
2023-05-17T22:12:08.872Z,8.70
2023-05-17T22:14:36.710Z,12.98
2023-05-17T22:17:08.682Z,11.90
2023-05-17T22:19:40.919Z,7.07
2023-05-17T22:22:08.774Z,10.50
2023-05-17T22:24:35.972Z,12.93
2023-05-17T22:27:03.966Z,7.38
2023-05-17T22:29:31.255Z,5.97
2023-05-17T22:31:58.561Z,10.98
2023-05-17T22:34:25.752Z,12.02
2023-05-17T22:36:52.826Z,8.45
2023-05-17T22:39:20.065Z,12.65
2023-05-17T22:41:47.129Z,10.40
2023-05-17T22:44:14.240Z,9.27
2023-05-17T22:46:42.481Z,6.55
2023-05-17T22:49:09.967Z,10.50
2023-05-17T22:51:37.146Z,6.82
2023-05-17T22:54:04.519Z,9.02
2023-05-17T22:56:31.747Z,11.63
2023-05-17T22:58:59.285Z,11.95
2023-05-17T23:01:26.717Z,11.65
2023-05-17T23:03:53.870Z,11.05
2023-05-17T23:06:22.326Z,10.43
2023-05-17T23:08:53.264Z,7.88
2023-05-17T23:11:20.363Z,7.00
2023-05-17T23:13:47.483Z,8.23
2023-05-17T23:16:14.617Z,7.25
2023-05-17T23:18:41.940Z,10.15
2023-05-17T23:21:09.618Z,16.38
2023-05-17T23:23:38.217Z,6.68
2023-05-17T23:26:06.165Z,16.83
2023-05-17T23:28:33.325Z,6.35
2023-05-17T23:31:01.644Z,9.52
2023-05-17T23:33:31.404Z,10.30
2023-05-17T23:36:01.650Z,8.23
2023-05-17T23:38:28.874Z,9.18
2023-05-17T23:40:56.494Z,9.02
2023-05-17T23:43:23.569Z,11.48
2023-05-17T23:45:51.531Z,9.32
2023-05-17T23:48:20.893Z,9.90
2023-05-17T23:50:48.023Z,6.30
2023-05-17T23:53:15.160Z,7.50
2023-05-17T23:55:42.241Z,9.07
2023-05-17T23:58:09.623Z,10.13
